Time;durP1;ratioP1;P1;durP2;ratioP2;P2;SDS_P1;SDS_P2;PMS_P1;PMS_P2;Temp;Humidity;BMP_temperature;BMP_pressure;BME280_temperature;BME280_humidity;BME280_pressure;Samples;Min_cycle;Max_cycle;Signal;HPM_P1;HPM_P2
2021/10/02 00:31:16;;;;;;;25.38;15.82;;;;;;;12.77;81.34;101152.22;5035460;28;20054;-55
2021/10/02 00:45:19;;;;;;;24.85;16.63;;;;;;;12.04;83.05;101124.16;5035626;28;20419;-57
2021/10/02 00:47:45;;;;;;;30.33;17.13;;;;;;;11.99;82.96;101130.16;5035916;28;20065;-57
2021/10/02 00:50:10;;;;;;;26.20;17.70;;;;;;;11.94;82.90;101126.94;5035742;28;21226;-58
2021/10/02 00:52:35;;;;;;;26.95;18.10;;;;;;;11.90;83.13;101131.75;5035638;28;20032;-59
2021/10/02 00:55:01;;;;;;;25.77;16.92;;;;;;;11.85;82.89;101135.75;5035689;28;20095;-58
2021/10/02 00:57:27;;;;;;;29.73;17.85;;;;;;;11.81;82.85;101120.03;5035710;28;20333;-58
2021/10/02 00:59:53;;;;;;;32.35;17.38;;;;;;;11.76;83.28;101121.16;5035231;28;20025;-57
2021/10/02 01:02:50;;;;;;;31.42;17.65;;;;;;;11.70;83.02;101117.91;5035634;28;20290;-57
2021/10/02 01:05:35;;;;;;;28.73;18.40;;;;;;;11.67;83.25;101129.16;5034117;28;20042;-57
2021/10/02 01:08:32;;;;;;;40.05;17.88;;;;;;;11.63;83.17;101122.69;5035207;28;20501;-56
2021/10/02 01:11:30;;;;;;;34.40;19.50;;;;;;;11.61;83.39;101113.81;5035420;28;20079;-58
2021/10/02 01:14:14;;;;;;;27.35;18.52;;;;;;;11.57;83.30;101113.81;5034206;28;20029;-57
2021/10/02 01:16:46;;;;;;;24.13;16.02;;;;;;;11.55;83.13;101116.22;5034335;28;20071;-57
2021/10/02 01:19:46;;;;;;;27.73;17.30;;;;;;;11.55;83.88;101109.78;5035410;28;20306;-52
2021/10/02 01:22:19;;;;;;;28.65;18.13;;;;;;;11.56;83.54;101105.75;5034403;28;20329;-59
2021/10/02 01:25:21;;;;;;;27.52;17.83;;;;;;;11.52;83.29;101104.94;5033879;28;20317;-58
2021/10/02 01:27:55;;;;;;;29.13;16.83;;;;;;;11.47;83.10;101103.25;5035051;28;20184;-58
2021/10/02 01:30:47;;;;;;;29.02;17.38;;;;;;;11.43;83.17;101105.25;5035119;28;20433;-58
2021/10/02 01:36:02;;;;;;;24.02;16.30;;;;;;;11.35;83.38;101098.78;5035502;28;20087;-58
2021/10/02 01:49:30;;;;;;;27.95;16.42;;;;;;;11.15;83.48;101103.03;5035512;28;20092;-58
2021/10/02 01:51:56;;;;;;;28.17;16.15;;;;;;;11.13;83.59;101102.59;5034750;28;20041;-51
2021/10/02 01:54:23;;;;;;;23.92;15.20;;;;;;;11.08;83.50;101102.97;5035130;28;20022;-55
2021/10/02 01:56:50;;;;;;;22.33;15.45;;;;;;;11.05;83.37;101103.75;5034846;28;20021;-58
2021/10/02 01:59:17;;;;;;;22.55;14.93;;;;;;;11.01;83.48;101100.91;5034709;28;20013;-58
2021/10/02 02:01:45;;;;;;;21.92;14.27;;;;;;;10.98;83.38;101103.69;5035052;28;20021;-58
2021/10/02 02:04:13;;;;;;;20.60;14.98;;;;;;;10.96;83.11;101100.47;5034802;28;20070;-57
2021/10/02 02:06:41;;;;;;;19.40;14.43;;;;;;;10.97;83.66;101108.53;5034713;28;20112;-58
2021/10/02 02:09:08;;;;;;;25.00;14.98;;;;;;;10.95;83.33;101107.25;5034868;28;20025;-53
2021/10/02 02:11:35;;;;;;;23.00;14.30;;;;;;;10.92;83.14;101099.59;5033923;28;20021;-55
2021/10/02 02:14:03;;;;;;;21.05;14.90;;;;;;;10.90;83.04;101102.00;5034541;28;20052;-59
2021/10/02 02:16:30;;;;;;;23.08;14.50;;;;;;;10.87;83.40;101097.16;5034831;28;20028;-59
2021/10/02 02:18:56;;;;;;;19.08;14.10;;;;;;;10.84;83.45;101093.13;5034801;28;20139;-53
2021/10/02 02:21:25;;;;;;;19.67;12.25;;;;;;;10.79;83.22;101091.47;5031085;28;20074;-57
2021/10/02 02:23:50;;;;;;;20.50;14.85;;;;;;;10.77;82.98;101082.63;5033405;28;20029;-57
2021/10/02 02:26:17;;;;;;;20.20;12.82;;;;;;;10.73;82.56;101084.59;5038361;28;20030;-58
2021/10/02 02:28:43;;;;;;;22.88;15.05;;;;;;;10.72;83.19;101090.59;5037795;28;20075;-59
2021/10/02 02:31:09;;;;;;;21.80;14.50;;;;;;;10.68;82.76;101084.09;5038271;28;20116;-58
2021/10/02 02:33:36;;;;;;;19.17;13.80;;;;;;;10.65;82.97;101082.88;5038652;28;20025;-55
2021/10/02 02:36:04;;;;;;;20.45;13.80;;;;;;;10.63;83.17;101076.84;5037857;28;20044;-58
2021/10/02 02:38:29;;;;;;;22.05;14.05;;;;;;;10.60;83.19;101076.81;5044557;28;20024;-57
2021/10/02 02:40:55;;;;;;;19.95;14.60;;;;;;;10.57;82.68;101081.19;5045368;28;20290;-58
2021/10/02 02:43:21;;;;;;;26.88;14.32;;;;;;;10.54;82.93;101081.97;5037465;28;20100;-56
2021/10/02 02:45:54;;;;;;;22.52;13.55;;;;;;;10.52;82.89;101078.75;5038001;28;20033;-59
2021/10/02 02:48:27;;;;;;;26.85;14.77;;;;;;;10.48;82.96;101077.91;5037919;28;20017;-58
2021/10/02 02:51:00;;;;;;;20.73;14.80;;;;;;;10.46;82.85;101083.09;5037722;28;20017;-57
2021/10/02 02:53:52;;;;;;;21.60;14.57;;;;;;;10.43;82.71;101079.06;5037917;28;20014;-59
2021/10/02 02:56:41;;;;;;;28.88;14.05;;;;;;;10.40;83.03;101074.19;5037537;28;20025;-60
2021/10/02 02:59:12;;;;;;;18.48;13.05;;;;;;;10.38;82.79;101072.97;5036532;28;20076;-58
2021/10/02 03:01:41;;;;;;;23.33;12.83;;;;;;;10.36;83.11;101072.53;5032819;28;20041;-57
2021/10/02 03:04:12;;;;;;;17.27;13.00;;;;;;;10.36;82.98;101062.09;5037648;28;20295;-55
2021/10/02 03:06:43;;;;;;;22.52;13.93;;;;;;;10.33;83.29;101062.88;5037369;28;20037;-58
2021/10/02 03:09:08;;;;;;;17.98;13.20;;;;;;;10.33;82.99;101064.88;5037758;28;20022;-54
2021/10/02 03:11:34;;;;;;;22.35;13.10;;;;;;;10.29;82.79;101058.41;5037334;28;20112;-57
2021/10/02 03:14:01;;;;;;;20.90;13.38;;;;;;;10.26;82.88;101060.00;5037160;28;20017;-51
2021/10/02 03:16:29;;;;;;;20.02;13.68;;;;;;;10.22;82.81;101067.59;5037588;28;20018;-56
2021/10/02 03:18:58;;;;;;;23.23;13.80;;;;;;;10.20;82.76;101067.13;5037269;28;20025;-59
2021/10/02 03:21:24;;;;;;;19.27;12.60;;;;;;;10.18;82.41;101056.28;5037311;28;20028;-58
2021/10/02 03:23:50;;;;;;;23.05;13.75;;;;;;;10.17;82.63;101063.09;5037456;28;20328;-57
2021/10/02 03:26:17;;;;;;;23.65;15.43;;;;;;;10.16;82.28;101064.28;5037185;28;20053;-58
2021/10/02 03:28:44;;;;;;;21.52;14.80;;;;;;;10.14;82.37;101061.06;5037091;28;20072;-58
2021/10/02 03:31:10;;;;;;;25.98;14.05;;;;;;;10.13;82.31;101059.41;5036248;28;20104;-58
2021/10/02 03:33:36;;;;;;;19.00;14.02;;;;;;;10.11;82.27;101049.75;5037337;28;20067;-58
2021/10/02 03:36:02;;;;;;;23.25;14.35;;;;;;;10.08;82.14;101053.31;5036427;28;20041;-57
2021/10/02 03:38:28;;;;;;;20.15;13.63;;;;;;;10.07;82.48;101058.13;5043620;28;20325;-58
2021/10/02 03:41:01;;;;;;;21.48;14.60;;;;;;;10.03;82.11;101048.88;5041318;28;20033;-57
2021/10/02 03:43:32;;;;;;;23.58;13.75;;;;;;;10.02;82.71;101047.25;5036906;28;20025;-58
2021/10/02 03:45:57;;;;;;;22.03;13.47;;;;;;;10.03;82.38;101043.25;5036682;28;20037;-59
2021/10/02 03:48:23;;;;;;;23.02;14.52;;;;;;;10.05;82.33;101052.09;5036508;28;20025;-59
2021/10/02 03:50:49;;;;;;;22.95;13.73;;;;;;;10.05;82.56;101040.84;5036555;28;20025;-58
2021/10/02 03:53:14;;;;;;;23.95;14.88;;;;;;;10.04;82.47;101042.06;5036738;28;20023;-59
2021/10/02 03:55:39;;;;;;;20.17;14.82;;;;;;;10.04;82.33;101036.44;5036640;28;20431;-59
2021/10/02 03:58:05;;;;;;;26.25;14.10;;;;;;;10.05;82.68;101035.25;5036516;28;20033;-59
2021/10/02 04:00:30;;;;;;;23.10;16.30;;;;;;;10.07;82.82;101043.28;5036767;28;20326;-58
2021/10/02 04:02:55;;;;;;;24.95;14.68;;;;;;;10.06;82.76;101050.91;5036352;28;20061;-58
2021/10/02 04:05:21;;;;;;;18.95;13.70;;;;;;;10.04;82.33;101044.84;5036510;28;20443;-58
2021/10/02 04:07:46;;;;;;;19.60;14.45;;;;;;;10.01;82.09;101045.63;5036459;28;20099;-59
2021/10/02 04:10:12;;;;;;;20.50;13.75;;;;;;;9.99;82.30;101039.59;5036146;28;20025;-58
2021/10/02 04:12:37;;;;;;;20.38;14.55;;;;;;;9.96;82.35;101039.56;5036616;28;20413;-60
2021/10/02 04:15:03;;;;;;;22.35;13.75;;;;;;;9.92;82.55;101036.69;5035006;28;20048;-60
2021/10/02 04:17:29;;;;;;;19.50;13.52;;;;;;;9.91;82.09;101035.09;5035111;28;20021;-61
2021/10/02 04:19:54;;;;;;;20.08;14.13;;;;;;;9.88;82.36;101041.47;5036151;28;20025;-57
2021/10/02 04:22:20;;;;;;;23.55;15.52;;;;;;;9.83;82.46;101036.16;5036401;28;20025;-60
2021/10/02 04:24:45;;;;;;;20.00;14.23;;;;;;;9.81;82.22;101036.56;5035886;28;20025;-58
2021/10/02 04:27:11;;;;;;;20.27;13.80;;;;;;;9.83;82.57;101036.97;5036374;28;20025;-57
2021/10/02 04:29:37;;;;;;;22.33;14.93;;;;;;;9.81;83.12;101030.94;5034715;28;20424;-59
2021/10/02 04:32:03;;;;;;;21.15;13.98;;;;;;;9.80;82.78;101039.75;5036020;28;20032;-55
2021/10/02 04:34:28;;;;;;;23.77;13.07;;;;;;;9.77;82.63;101034.91;5036393;28;20013;-58
2021/10/02 04:36:53;;;;;;;18.75;14.18;;;;;;;9.73;82.15;101040.47;5035673;28;20029;-58
2021/10/02 04:39:19;;;;;;;22.60;15.43;;;;;;;9.71;82.68;101033.63;5037793;28;20111;-60
2021/10/02 04:41:44;;;;;;;24.65;13.73;;;;;;;9.68;82.05;101031.59;5036118;28;20032;-60
2021/10/02 04:44:10;;;;;;;22.58;14.52;;;;;;;9.65;82.87;101041.56;5035749;28;20033;-60
2021/10/02 04:46:35;;;;;;;19.25;14.00;;;;;;;9.63;82.47;101034.72;5035025;28;20017;-59
2021/10/02 04:49:01;;;;;;;31.92;14.18;;;;;;;9.59;82.96;101041.09;5035367;28;20037;-58
2021/10/02 04:51:27;;;;;;;21.05;14.90;;;;;;;9.57;82.87;101032.22;5036684;28;20721;-55
2021/10/02 04:53:53;;;;;;;21.75;15.68;;;;;;;9.54;83.03;101041.41;5035241;28;20125;-58
2021/10/02 04:56:20;;;;;;;28.55;14.52;;;;;;;9.53;83.06;101039.78;5035560;28;20104;-58
2021/10/02 04:58:46;;;;;;;24.45;16.10;;;;;;;9.51;83.39;101041.38;5035829;28;20029;-57
2021/10/02 05:01:12;;;;;;;22.65;13.98;;;;;;;9.49;83.41;101041.75;5035400;28;20025;-58
2021/10/02 05:03:39;;;;;;;26.02;14.35;;;;;;;9.47;83.54;101051.75;5035611;28;20053;-58
2021/10/02 05:06:07;;;;;;;28.52;16.30;;;;;;;9.45;83.48;101049.31;5035614;28;20045;-60
2021/10/02 05:08:34;;;;;;;23.08;14.65;;;;;;;9.45;83.54;101048.50;5035086;28;20039;-55
2021/10/02 05:11:00;;;;;;;27.90;14.20;;;;;;;9.44;83.64;101050.50;5035471;28;20057;-57
2021/10/02 05:13:26;;;;;;;24.10;16.10;;;;;;;9.42;83.18;101052.88;5035383;28;20021;-59
2021/10/02 05:15:52;;;;;;;39.13;19.58;;;;;;;9.43;83.39;101060.09;5035477;28;20025;-56
2021/10/02 05:18:17;;;;;;;44.10;21.30;;;;;;;9.44;83.76;101061.72;5035102;28;20025;-58
2021/10/02 05:20:43;;;;;;;41.35;21.90;;;;;;;9.47;83.42;101065.75;5034611;28;20036;-55
2021/10/02 05:23:08;;;;;;;52.58;24.08;;;;;;;9.48;83.29;101067.38;5035347;28;20029;-58
2021/10/02 05:25:34;;;;;;;54.67;24.17;;;;;;;9.51;84.03;101067.44;5034897;28;20053;-56
2021/10/02 05:27:59;;;;;;;47.60;21.80;;;;;;;9.59;84.41;101071.97;5035169;28;20079;-58
2021/10/02 05:30:25;;;;;;;45.80;20.30;;;;;;;9.65;83.79;101066.03;5035195;28;20105;-58
2021/10/02 05:32:51;;;;;;;46.67;20.63;;;;;;;9.71;83.54;101070.13;5035142;28;20021;-58
2021/10/02 05:35:16;;;;;;;37.53;18.73;;;;;;;9.80;84.31;101073.44;5035159;28;20581;-55
2021/10/02 05:37:42;;;;;;;40.10;18.85;;;;;;;9.89;83.85;101073.97;5035199;28;20360;-59
2021/10/02 05:40:08;;;;;;;33.58;18.45;;;;;;;9.97;83.48;101077.69;5024096;28;20597;-58
2021/10/02 05:42:33;;;;;;;31.30;16.23;;;;;;;10.02;83.34;101083.75;5034067;28;20030;-57
2021/10/02 05:44:59;;;;;;;28.55;17.83;;;;;;;10.10;83.02;101082.66;5034918;28;20021;-58
2021/10/02 05:47:24;;;;;;;27.52;15.90;;;;;;;10.17;83.46;101088.38;5035246;28;20026;-59
2021/10/02 05:49:50;;;;;;;27.20;14.65;;;;;;;10.26;83.19;101085.28;5034460;28;20362;-56
2021/10/02 05:52:16;;;;;;;25.45;14.02;;;;;;;10.37;82.68;101096.63;5035185;28;20497;-59
2021/10/02 05:54:41;;;;;;;22.83;14.05;;;;;;;10.46;82.05;101085.91;5034879;28;20148;-58
2021/10/02 05:57:07;;;;;;;24.25;14.80;;;;;;;10.58;81.93;101084.81;5034846;28;20037;-57
2021/10/02 05:59:33;;;;;;;22.23;14.75;;;;;;;10.71;81.65;101098.22;5038238;28;20040;-58
2021/10/02 06:01:58;;;;;;;25.42;14.73;;;;;;;10.84;80.56;101093.13;5036984;28;20029;-59
2021/10/02 06:04:23;;;;;;;21.20;13.73;;;;;;;10.97;79.93;101091.63;5037993;28;20042;-58
2021/10/02 06:06:49;;;;;;;20.70;12.60;;;;;;;11.10;78.90;101092.94;5070813;28;20032;-54
2021/10/02 06:09:14;;;;;;;20.70;13.77;;;;;;;11.26;78.88;101103.13;5038619;28;20030;-57
2021/10/02 06:11:40;;;;;;;21.33;13.18;;;;;;;11.39;78.53;101102.41;5038494;28;20317;-58
2021/10/02 06:14:06;;;;;;;22.60;13.27;;;;;;;11.54;78.01;101106.16;5038262;28;20032;-57
2021/10/02 06:16:32;;;;;;;21.83;13.38;;;;;;;11.69;77.19;101109.84;5038639;28;20455;-58
2021/10/02 06:18:58;;;;;;;21.30;12.77;;;;;;;11.80;76.37;101116.41;5038301;28;20379;-56
2021/10/02 06:21:23;;;;;;;27.25;13.98;;;;;;;11.94;75.53;101112.84;5038074;28;20045;-56
2021/10/02 06:23:49;;;;;;;19.83;11.88;;;;;;;12.06;74.42;101113.31;5038293;28;20022;-51
2021/10/02 06:26:14;;;;;;;18.10;11.70;;;;;;;12.21;74.05;101108.53;5037870;28;20075;-55
2021/10/02 06:28:40;;;;;;;18.60;12.00;;;;;;;12.35;74.20;101114.25;5037317;28;20029;-58
2021/10/02 06:31:06;;;;;;;19.15;12.63;;;;;;;12.50;73.97;101117.91;5037051;28;20021;-57
2021/10/02 06:33:32;;;;;;;20.35;12.35;;;;;;;12.64;73.42;101126.41;5033891;28;20040;-55
2021/10/02 06:35:58;;;;;;;17.17;11.15;;;;;;;12.77;72.46;101124.00;5027275;28;20045;-56
2021/10/02 06:38:23;;;;;;;16.95;10.95;;;;;;;12.92;72.10;101119.22;5043077;28;20029;-56
2021/10/02 06:40:49;;;;;;;20.70;11.45;;;;;;;13.05;72.40;101122.44;5043195;28;20033;-58
2021/10/02 06:43:15;;;;;;;15.98;11.07;;;;;;;13.19;71.26;101134.59;5038171;28;20409;-59
2021/10/02 06:45:41;;;;;;;20.33;11.73;;;;;;;13.31;69.82;101124.88;5038004;28;20041;-57
2021/10/02 06:48:06;;;;;;;23.35;11.98;;;;;;;13.42;69.99;101124.88;5037539;28;20021;-53
2021/10/02 06:50:33;;;;;;;20.60;11.60;;;;;;;13.52;69.40;101129.72;5037997;28;20021;-58
2021/10/02 06:52:58;;;;;;;20.45;10.68;;;;;;;13.60;68.84;101128.50;5037494;28;20029;-58
2021/10/02 06:55:24;;;;;;;18.42;10.63;;;;;;;13.72;68.48;101136.56;5037323;28;20105;-57
2021/10/02 06:57:49;;;;;;;15.88;9.32;;;;;;;13.86;67.56;101130.06;5037238;28;20095;-58
2021/10/02 07:00:15;;;;;;;21.25;10.18;;;;;;;13.96;67.26;101131.25;5037852;28;20348;-58
2021/10/02 07:02:41;;;;;;;14.90;9.05;;;;;;;14.02;65.00;101138.09;5036636;28;20025;-56
2021/10/02 07:05:08;;;;;;;16.73;9.98;;;;;;;14.08;65.65;101134.44;5036622;28;20064;-58
2021/10/02 07:07:33;;;;;;;18.75;9.05;;;;;;;14.20;64.25;101141.66;5028228;28;20073;-58
2021/10/02 07:09:59;;;;;;;24.88;9.48;;;;;;;14.19;63.36;101137.22;5033443;28;20049;-57
2021/10/02 07:12:24;;;;;;;17.45;9.27;;;;;;;14.25;62.23;101138.44;5036942;28;20471;-53
2021/10/02 07:14:49;;;;;;;20.25;9.52;;;;;;;14.30;62.90;101140.03;5036826;28;20044;-58
2021/10/02 07:17:15;;;;;;;18.70;10.13;;;;;;;14.34;62.71;101130.31;5036824;28;20057;-57
2021/10/02 07:19:40;;;;;;;16.10;9.30;;;;;;;14.42;62.27;101128.25;5037251;28;20036;-59
2021/10/02 07:22:06;;;;;;;16.90;8.77;;;;;;;14.52;62.00;101130.25;5036941;28;20017;-57
2021/10/02 07:24:31;;;;;;;14.20;9.30;;;;;;;14.64;61.82;101131.81;5037182;28;20075;-59
2021/10/02 07:26:57;;;;;;;15.02;9.18;;;;;;;14.71;61.54;101126.09;5037032;28;20031;-58
2021/10/02 07:29:22;;;;;;;12.57;8.30;;;;;;;14.78;60.86;101135.34;5037287;28;20032;-59
2021/10/02 07:31:49;;;;;;;11.60;7.93;;;;;;;14.73;59.44;101118.00;5036781;28;20317;-58
2021/10/02 07:34:15;;;;;;;19.48;8.73;;;;;;;14.75;60.06;101127.69;5036614;28;20429;-57
2021/10/02 07:36:41;;;;;;;12.35;8.13;;;;;;;14.83;59.84;101122.81;5037065;28;20025;-57
2021/10/02 07:39:07;;;;;;;14.88;8.93;;;;;;;14.85;59.59;101120.38;5040796;28;20021;-56
2021/10/02 07:41:37;;;;;;;471.90;31.90;;;;;;;14.99;58.91;101128.75;5037075;28;20022;-61
2021/10/02 07:44:04;;;;;;;17.45;8.35;;;;;;;15.18;58.32;101126.59;5034000;28;20037;-58
2021/10/02 07:46:34;;;;;;;13.40;7.47;;;;;;;15.36;58.39;101115.94;5068481;28;20024;-58
2021/10/02 07:49:00;;;;;;;13.50;7.25;;;;;;;15.46;57.10;101124.31;5036584;28;20025;-56
2021/10/02 07:51:26;;;;;;;14.73;7.55;;;;;;;15.51;56.95;101125.88;5036979;28;20083;-58
2021/10/02 07:53:55;;;;;;;15.43;7.95;;;;;;;15.52;55.92;101113.34;5036064;28;20429;-58
2021/10/02 07:56:21;;;;;;;16.35;8.15;;;;;;;15.58;57.68;101117.34;5036739;28;20014;-58
2021/10/02 07:58:51;;;;;;;12.57;7.22;;;;;;;15.68;56.49;101119.28;5036576;28;20383;-58
2021/10/02 08:01:18;;;;;;;21.25;7.32;;;;;;;15.69;56.41;101118.06;5036516;28;20363;-59
2021/10/02 08:03:44;;;;;;;13.95;7.03;;;;;;;15.77;55.96;101115.94;5031121;28;20423;-57
2021/10/02 08:06:10;;;;;;;11.75;7.47;;;;;;;15.83;55.56;101116.28;5036582;28;20059;-58
2021/10/02 08:08:36;;;;;;;18.02;7.05;;;;;;;15.82;55.33;101109.00;5037543;28;20045;-55
2021/10/02 08:11:05;;;;;;;12.93;7.63;;;;;;;15.89;55.48;101114.63;5036309;28;20346;-58
2021/10/02 08:13:30;;;;;;;12.88;7.38;;;;;;;15.95;53.73;101118.59;5037351;28;20037;-58
2021/10/02 08:15:59;;;;;;;17.40;7.40;;;;;;;15.99;53.63;101110.84;5047064;28;20018;-53
2021/10/02 08:18:28;;;;;;;19.73;6.35;;;;;;;16.02;55.00;101105.13;5036416;28;20037;-58
2021/10/02 08:20:55;;;;;;;12.27;7.07;;;;;;;16.14;53.82;101109.44;5036059;28;20021;-57
2021/10/02 08:23:24;;;;;;;13.10;6.90;;;;;;;16.20;52.75;101101.28;5048081;28;20098;-58
2021/10/02 08:25:53;;;;;;;14.98;7.10;;;;;;;16.31;52.75;101102.75;5022437;28;20029;-57
2021/10/02 08:28:19;;;;;;;14.95;7.72;;;;;;;16.35;54.09;101108.38;5035189;28;20041;-58
2021/10/02 08:30:46;;;;;;;11.32;6.82;;;;;;;16.37;52.85;101109.56;5035868;28;20036;-58
2021/10/02 08:33:12;;;;;;;13.68;6.90;;;;;;;16.42;52.46;101101.81;5035089;28;20021;-57
2021/10/02 08:35:39;;;;;;;15.40;6.72;;;;;;;16.51;52.52;101100.06;5036212;28;20419;-59
2021/10/02 08:38:04;;;;;;;13.38;6.60;;;;;;;16.62;53.79;101099.91;5038585;28;20017;-59
2021/10/02 08:40:30;;;;;;;15.55;6.20;;;;;;;16.72;53.80;101096.16;5041983;28;20022;-58
2021/10/02 08:42:56;;;;;;;18.65;6.30;;;;;;;16.78;51.81;101102.16;5035024;28;20053;-58
2021/10/02 08:45:22;;;;;;;15.20;6.57;;;;;;;16.82;53.62;101100.84;5035777;28;20313;-58
2021/10/02 08:47:48;;;;;;;12.70;6.18;;;;;;;16.88;54.39;101101.97;5035767;28;20424;-57
2021/10/02 08:50:17;;;;;;;14.38;6.07;;;;;;;16.92;52.66;101104.75;5035797;28;20444;-61
2021/10/02 08:52:44;;;;;;;10.88;6.00;;;;;;;16.96;52.01;101096.97;5035579;28;20023;-58
2021/10/02 08:55:10;;;;;;;11.80;6.38;;;;;;;17.04;53.07;101092.00;5035543;28;20356;-56
2021/10/02 08:57:37;;;;;;;15.15;6.25;;;;;;;17.08;51.34;101087.88;5035793;28;20025;-55
2021/10/02 09:00:12;;;;;;;15.52;6.53;;;;;;;17.15;50.59;101104.00;5035402;28;20032;-56
2021/10/02 09:02:38;;;;;;;18.48;6.72;;;;;;;17.12;49.79;101085.78;5035478;28;20025;-55
2021/10/02 09:05:06;;;;;;;10.32;5.85;;;;;;;17.21;50.93;101080.34;5035399;28;20049;-57
2021/10/02 09:07:31;;;;;;;17.30;5.57;;;;;;;17.23;50.20;101082.75;5035518;28;20029;-55
2021/10/02 09:10:01;;;;;;;14.75;5.97;;;;;;;17.26;49.19;101087.59;5035250;28;20082;-52
2021/10/02 09:12:27;;;;;;;15.18;5.72;;;;;;;17.27;49.74;101078.63;5035915;28;20021;-56
2021/10/02 09:14:53;;;;;;;15.63;5.43;;;;;;;17.37;52.13;101082.50;5034982;28;20021;-57
2021/10/02 09:17:19;;;;;;;10.80;5.57;;;;;;;17.47;49.66;101081.50;5035585;28;20313;-54
2021/10/02 09:19:45;;;;;;;14.15;5.72;;;;;;;17.57;49.39;101091.91;5035880;28;20029;-53
2021/10/02 09:22:13;;;;;;;12.30;5.88;;;;;;;17.60;49.98;101088.19;5035239;28;20032;-54
2021/10/02 09:24:44;;;;;;;13.35;6.05;;;;;;;17.68;48.84;101082.38;5035326;28;20036;-54
2021/10/02 09:27:21;;;;;;;12.13;4.22;;;;;;;17.66;48.23;101077.09;5035490;28;20104;-56
2021/10/02 09:29:51;;;;;;;12.27;5.03;;;;;;;17.69;47.61;101072.63;5035579;28;20029;-55
2021/10/02 09:32:20;;;;;;;12.95;5.18;;;;;;;17.74;47.55;101081.44;5035187;28;20022;-56
2021/10/02 09:34:59;;;;;;;8.85;4.47;;;;;;;17.80;48.55;101074.00;5038257;28;20109;-54
2021/10/02 09:37:33;;;;;;;13.70;4.95;;;;;;;17.91;47.79;101083.16;5038494;28;20033;-57
2021/10/02 09:40:06;;;;;;;14.82;5.22;;;;;;;17.98;47.13;101072.84;5042067;28;20040;-55
2021/10/02 09:42:38;;;;;;;9.07;4.10;;;;;;;18.02;45.15;101077.22;5039882;28;20025;-56
2021/10/02 09:45:10;;;;;;;10.25;4.32;;;;;;;18.07;45.81;101068.19;5036014;28;20334;-56
2021/10/02 09:47:37;;;;;;;11.60;5.07;;;;;;;18.09;44.10;101070.63;5033400;28;20083;-55
2021/10/02 09:50:09;;;;;;;8.98;4.32;;;;;;;18.05;44.21;101070.66;5039081;28;20104;-57
2021/10/02 09:52:43;;;;;;;7.97;4.07;;;;;;;18.15;44.47;101068.84;5039175;28;20025;-56
2021/10/02 09:55:25;;;;;;;11.80;4.82;;;;;;;18.16;42.73;101059.88;5022759;28;20032;-56
2021/10/02 09:57:57;;;;;;;10.40;4.90;;;;;;;18.20;43.71;101066.28;5026137;28;20021;-59
2021/10/02 10:00:28;;;;;;;10.77;4.78;;;;;;;18.19;45.52;101064.69;5038546;28;20025;-58
2021/10/02 10:02:55;;;;;;;9.60;4.35;;;;;;;18.17;44.50;101064.31;5039013;28;20032;-59
2021/10/02 10:05:27;;;;;;;9.30;3.90;;;;;;;18.29;43.52;101059.19;5038508;28;20328;-55
2021/10/02 10:07:55;;;;;;;8.57;4.55;;;;;;;18.33;43.37;101062.75;5038554;28;20033;-54
2021/10/02 10:10:21;;;;;;;16.10;5.28;;;;;;;18.37;43.29;101057.81;5038750;28;20063;-57
2021/10/02 10:12:47;;;;;;;10.15;4.88;;;;;;;18.39;43.29;101067.50;5038818;28;20036;-57
2021/10/02 10:15:35;;;;;;;10.73;4.30;;;;;;;18.42;42.19;101058.09;5037318;28;20025;-50
2021/10/02 10:18:01;;;;;;;13.73;5.45;;;;;;;18.42;43.94;101054.44;5038243;28;20079;-53
2021/10/02 10:20:39;;;;;;;12.23;4.32;;;;;;;18.47;42.72;101051.06;5038330;28;20029;-57
2021/10/02 10:23:05;;;;;;;17.40;5.10;;;;;;;18.54;42.05;101065.13;5031925;28;20025;-57
2021/10/02 10:25:31;;;;;;;12.40;4.93;;;;;;;18.58;43.19;101053.66;5037789;28;20029;-57
2021/10/02 10:28:02;;;;;;;15.60;4.68;;;;;;;18.61;42.42;101052.78;5021811;28;20105;-55
2021/10/02 10:30:29;;;;;;;13.27;5.05;;;;;;;18.62;42.92;101042.97;5025348;28;20505;-56
2021/10/02 10:33:08;;;;;;;12.38;5.07;;;;;;;18.63;42.71;101036.09;5039124;28;20344;-51
2021/10/02 10:35:38;;;;;;;7.55;4.20;;;;;;;18.70;43.22;101033.88;5048227;28;20022;-56
2021/10/02 10:38:06;;;;;;;11.80;4.75;;;;;;;18.74;42.87;101037.44;5043969;28;20055;-56
2021/10/02 10:40:33;;;;;;;16.20;4.97;;;;;;;18.79;43.50;101039.75;5032530;28;20029;-54
2021/10/02 10:42:58;;;;;;;17.42;5.65;;;;;;;18.79;43.62;101034.06;5037988;28;20053;-57
2021/10/02 10:45:25;;;;;;;10.57;5.47;;;;;;;18.83;42.90;101029.06;5036821;28;20452;-56
2021/10/02 10:47:51;;;;;;;14.20;5.50;;;;;;;18.83;43.25;101016.88;5037721;28;20108;-56
2021/10/02 10:50:17;;;;;;;10.40;4.85;;;;;;;18.86;42.94;101021.69;5038002;28;20101;-58
2021/10/02 10:52:44;;;;;;;8.35;4.88;;;;;;;18.91;43.07;101014.69;5037711;28;20484;-55
2021/10/02 10:55:19;;;;;;;15.43;4.15;;;;;;;19.01;41.72;101022.13;5027371;28;20483;-55
2021/10/02 10:57:56;;;;;;;13.13;5.53;;;;;;;18.99;41.18;101007.53;5038120;28;20296;-58
2021/10/02 11:00:39;;;;;;;10.68;5.03;;;;;;;18.98;41.40;100998.19;5037690;28;20021;-51
2021/10/02 11:03:07;;;;;;;12.43;4.47;;;;;;;18.98;43.13;100991.69;5041773;28;20448;-56
2021/10/02 11:05:39;;;;;;;13.38;5.40;;;;;;;19.09;42.88;101012.16;5037323;28;20060;-51
2021/10/02 11:08:06;;;;;;;11.85;4.57;;;;;;;19.10;41.43;101008.84;5044167;28;20025;-55
2021/10/02 11:10:41;;;;;;;9.10;4.25;;;;;;;19.15;41.99;100996.91;5044460;28;20039;-55
2021/10/02 11:13:16;;;;;;;20.50;4.70;;;;;;;19.21;41.64;100997.19;5044256;28;20087;-52
2021/10/02 11:15:42;;;;;;;15.50;5.22;;;;;;;19.25;42.17;101006.44;5037775;28;20017;-56
2021/10/02 11:18:39;;;;;;;13.10;4.38;;;;;;;19.31;42.24;100996.09;5037493;28;20025;-54
2021/10/02 11:21:04;;;;;;;13.15;4.53;;;;;;;19.37;41.28;100985.75;5037404;28;20029;-50
2021/10/02 11:23:41;;;;;;;9.63;4.40;;;;;;;19.37;41.73;100988.59;5037012;28;20022;-58
2021/10/02 11:26:25;;;;;;;10.95;4.60;;;;;;;19.36;41.38;100980.50;5029826;28;20084;-57
2021/10/02 11:29:13;;;;;;;16.92;4.80;;;;;;;19.45;41.52;100981.47;5028619;28;20025;-56
2021/10/02 11:31:39;;;;;;;10.98;4.85;;;;;;;19.42;41.71;100984.38;5025442;28;20422;-54
2021/10/02 11:34:16;;;;;;;12.77;5.20;;;;;;;19.34;42.46;100986.66;5030840;28;20072;-56
2021/10/02 11:36:43;;;;;;;12.23;4.70;;;;;;;19.42;40.43;100996.59;5026171;28;20511;-56
2021/10/02 11:39:30;;;;;;;13.55;5.13;;;;;;;19.45;41.16;100984.31;5034382;28;20420;-56
2021/10/02 11:44:32;;;;;;;9.55;4.63;;;;;;;19.46;42.24;100979.41;5155075;23;20057;-57
2021/10/02 11:47:38;;;;;;;9.02;5.07;;;;;;;19.48;43.58;100976.13;5007689;28;20034;-56
2021/10/02 11:50:12;;;;;;;9.13;4.80;;;;;;;19.53;43.32;100967.84;4977410;28;20385;-57
2021/10/02 11:52:57;;;;;;;10.35;4.75;;;;;;;19.60;43.05;100972.53;4988931;28;20023;-55
2021/10/02 11:55:40;;;;;;;10.68;5.10;;;;;;;19.66;43.07;100965.81;4997935;28;20069;-57
2021/10/02 11:58:11;;;;;;;15.95;5.72;;;;;;;19.73;41.16;100971.31;5011362;28;20076;-48
2021/10/02 12:00:49;;;;;;;8.88;4.95;;;;;;;19.70;41.87;100957.16;5009129;28;20433;-45
2021/10/02 12:03:35;;;;;;;10.80;4.40;;;;;;;19.66;41.93;100956.47;5010597;28;20033;-53
2021/10/02 12:06:02;;;;;;;7.97;4.57;;;;;;;19.63;42.86;100955.31;5016320;28;20413;-48
2021/10/02 12:08:29;;;;;;;12.05;5.32;;;;;;;19.70;42.84;100948.59;5007839;28;20022;-55
2021/10/02 12:11:00;;;;;;;16.42;5.22;;;;;;;19.76;41.86;100946.81;5016632;28;20440;-52
2021/10/02 12:13:28;;;;;;;10.20;4.53;;;;;;;19.73;42.76;100936.31;5001265;28;20034;-54
2021/10/02 12:16:07;;;;;;;9.73;4.47;;;;;;;19.73;42.51;100942.00;5011707;28;20018;-56
2021/10/02 12:18:42;;;;;;;9.02;5.32;;;;;;;19.73;42.30;100942.81;5016533;28;20364;-58
2021/10/02 12:21:34;;;;;;;11.57;4.95;;;;;;;19.79;41.30;100942.25;5016503;28;20105;-57